createdAt,value
2019-05-14T00:00:32.108Z,15.80
2019-05-14T00:01:33.889Z,11.00
2019-05-14T00:02:35.960Z,12.00
2019-05-14T00:03:37.858Z,14.00
2019-05-14T00:04:42.404Z,12.00
2019-05-14T00:05:44.061Z,9.80
2019-05-14T00:06:46.235Z,10.00
2019-05-14T00:07:48.459Z,12.80
2019-05-14T00:08:52.152Z,15.20
2019-05-14T00:09:54.251Z,13.20
2019-05-14T00:10:57.347Z,14.00
2019-05-14T00:11:59.114Z,14.00
2019-05-14T00:13:01.655Z,11.20
2019-05-14T00:14:04.101Z,13.00
2019-05-14T00:15:07.086Z,11.80
2019-05-14T00:16:09.240Z,13.80
2019-05-14T00:17:11.379Z,15.40
2019-05-14T00:18:13.552Z,12.80
2019-05-14T00:19:15.616Z,11.80
2019-05-14T00:20:17.568Z,12.40
2019-05-14T00:21:21.162Z,12.20
2019-05-14T00:22:23.442Z,11.60
2019-05-14T00:23:26.693Z,10.80
2019-05-14T00:24:28.888Z,10.00
2019-05-14T00:25:31.447Z,12.40
2019-05-14T00:26:33.648Z,13.00
2019-05-14T00:27:35.707Z,13.00
2019-05-14T00:28:39.143Z,13.00
2019-05-14T00:29:41.758Z,13.00
2019-05-14T00:30:44.206Z,12.60
2019-05-14T00:31:46.237Z,11.00
2019-05-14T00:32:48.361Z,11.00
2019-05-14T00:33:51.240Z,11.20
2019-05-14T00:34:53.587Z,11.20
2019-05-14T00:35:55.632Z,12.20
2019-05-14T00:36:57.324Z,11.40
2019-05-14T00:38:01.270Z,13.00
2019-05-14T00:39:04.806Z,12.60
2019-05-14T00:40:07.317Z,12.00
2019-05-14T00:41:11.146Z,13.00
2019-05-14T00:42:12.795Z,12.60
2019-05-14T00:43:14.782Z,14.60
2019-05-14T00:44:16.715Z,13.20
2019-05-14T00:45:18.701Z,11.80
2019-05-14T00:46:21.261Z,12.20
2019-05-14T00:47:24.969Z,12.00
2019-05-14T00:48:27.039Z,10.00
2019-05-14T00:49:29.164Z,11.20
2019-05-14T00:50:31.994Z,13.20
2019-05-14T00:51:35.060Z,12.80
2019-05-14T00:52:36.776Z,10.00
2019-05-14T00:53:38.825Z,11.00
2019-05-14T00:54:41.612Z,12.40
2019-05-14T00:55:44.006Z,12.60
2019-05-14T00:56:45.780Z,10.80
2019-05-14T00:57:47.877Z,10.00
2019-05-14T00:58:51.953Z,11.00
2019-05-14T00:59:53.677Z,12.00
2019-05-14T01:00:55.803Z,11.00
2019-05-14T01:01:57.693Z,9.80
2019-05-14T01:03:01.793Z,11.60
2019-05-14T01:04:03.503Z,12.00
2019-05-14T01:05:06.429Z,9.60
2019-05-14T01:06:08.352Z,10.60
2019-05-14T01:07:11.911Z,12.20
2019-05-14T01:08:15.199Z,12.60
2019-05-14T01:09:17.379Z,12.00
2019-05-14T01:10:21.985Z,13.20
2019-05-14T01:11:23.493Z,12.20
2019-05-14T01:12:25.259Z,14.00
2019-05-14T01:13:31.084Z,13.00
2019-05-14T01:14:32.428Z,11.00
2019-05-14T01:15:34.405Z,12.40
2019-05-14T01:16:36.351Z,13.00
2019-05-14T01:17:38.427Z,12.80
2019-05-14T01:18:41.454Z,12.80
2019-05-14T01:19:43.556Z,13.60
2019-05-14T01:20:45.236Z,11.80
2019-05-14T01:21:47.303Z,11.00
2019-05-14T01:22:51.412Z,12.40
2019-05-14T01:23:53.394Z,13.40
2019-05-14T01:24:55.353Z,11.50
2019-05-14T01:25:57.353Z,13.80
2019-05-14T01:27:01.450Z,13.00
2019-05-14T01:28:03.120Z,13.40
2019-05-14T01:29:05.044Z,10.40
2019-05-14T01:30:07.672Z,12.00
2019-05-14T01:31:11.333Z,11.40
2019-05-14T01:32:13.300Z,11.00
2019-05-14T01:33:15.408Z,10.20
2019-05-14T01:34:17.498Z,12.40
2019-05-14T01:35:19.440Z,14.20
2019-05-14T01:36:21.656Z,10.60
2019-05-14T01:37:23.619Z,11.20
2019-05-14T01:38:25.738Z,11.60
2019-05-14T01:39:27.714Z,15.60
2019-05-14T01:40:31.618Z,13.80
2019-05-14T01:41:33.514Z,14.20
2019-05-14T01:42:35.509Z,13.80
2019-05-14T01:43:37.113Z,12.40
2019-05-14T01:44:41.179Z,13.00
2019-05-14T01:45:42.784Z,12.40
2019-05-14T01:46:44.727Z,12.00
2019-05-14T01:47:46.692Z,13.00
2019-05-14T01:48:48.726Z,14.00
2019-05-14T01:49:51.482Z,12.20
2019-05-14T01:50:53.486Z,13.40
2019-05-14T01:51:55.427Z,13.80
2019-05-14T01:52:57.558Z,14.40
2019-05-14T01:54:01.503Z,11.80
2019-05-14T01:55:05.196Z,11.80
2019-05-14T01:56:06.932Z,15.80
2019-05-14T01:57:11.590Z,16.20
2019-05-14T01:58:13.673Z,12.60
2019-05-14T01:59:15.698Z,11.00
2019-05-14T02:00:17.980Z,12.60
2019-05-14T02:01:21.868Z,10.40
2019-05-14T02:02:24.161Z,12.60
2019-05-14T02:03:26.235Z,12.40
2019-05-14T02:04:28.617Z,12.80
2019-05-14T02:05:31.220Z,11.80
2019-05-14T02:06:33.429Z,12.40
2019-05-14T02:07:35.360Z,12.40
2019-05-14T02:08:37.238Z,12.60
2019-05-14T02:09:41.777Z,10.40
2019-05-14T02:10:43.600Z,12.00
2019-05-14T02:11:45.638Z,11.40
2019-05-14T02:12:47.237Z,16.00
2019-05-14T02:13:49.325Z,11.40
2019-05-14T02:14:51.420Z,12.00
2019-05-14T02:15:53.459Z,12.00
2019-05-14T02:16:55.352Z,10.00
2019-05-14T02:17:57.369Z,10.80
2019-05-14T02:19:01.434Z,10.00
2019-05-14T02:20:07.598Z,9.75
2019-05-14T02:21:09.290Z,14.00
2019-05-14T02:22:11.388Z,8.60
2019-05-14T02:23:13.213Z,12.20
2019-05-14T02:24:15.124Z,10.80
2019-05-14T02:25:17.034Z,9.20
2019-05-14T02:26:19.004Z,8.80
2019-05-14T02:27:21.481Z,9.00
2019-05-14T02:28:23.670Z,8.60
2019-05-14T02:29:25.657Z,11.60
2019-05-14T02:30:40.776Z,8.80
2019-05-14T02:31:31.456Z,11.80
2019-05-14T02:32:34.946Z,11.20
2019-05-14T02:33:39.734Z,11.60
2019-05-14T02:34:43.720Z,9.80
2019-05-14T02:35:49.153Z,10.60
2019-05-14T02:36:50.007Z,9.40
2019-05-14T02:37:52.197Z,9.80
2019-05-14T02:38:54.188Z,9.60
2019-05-14T02:39:59.478Z,10.00
2019-05-14T02:41:00.362Z,10.40
2019-05-14T02:42:02.435Z,11.00
2019-05-14T02:43:04.427Z,10.20
2019-05-14T02:44:09.526Z,10.40
2019-05-14T02:45:10.679Z,10.00
2019-05-14T02:46:17.194Z,10.00
2019-05-14T02:47:19.393Z,10.60
2019-05-14T02:48:20.596Z,10.40
2019-05-14T02:49:22.862Z,9.00
2019-05-14T02:50:24.868Z,10.40
2019-05-14T02:51:29.733Z,10.00
2019-05-14T02:52:31.000Z,11.00
2019-05-14T02:53:34.591Z,11.60
2019-05-14T02:54:40.035Z,11.80
2019-05-14T02:55:40.565Z,10.60
2019-05-14T02:56:42.637Z,10.80
2019-05-14T02:57:44.351Z,11.00
2019-05-14T02:58:49.609Z,12.80
2019-05-14T02:59:50.577Z,12.60
2019-05-14T03:00:53.817Z,13.00
2019-05-14T03:01:58.869Z,9.60
2019-05-14T03:03:00.068Z,12.40
2019-05-14T03:04:02.333Z,12.20
2019-05-14T03:05:04.981Z,12.40
2019-05-14T03:06:09.440Z,12.40
2019-05-14T03:07:11.398Z,12.40
2019-05-14T03:08:13.516Z,15.20
2019-05-14T03:09:15.635Z,12.20
2019-05-14T03:10:19.487Z,12.40
2019-05-14T03:11:21.876Z,12.00
2019-05-14T03:12:24.246Z,11.00
2019-05-14T03:13:29.314Z,10.00
2019-05-14T03:14:30.533Z,14.60
2019-05-14T03:15:32.750Z,14.00
2019-05-14T03:16:36.071Z,15.40
2019-05-14T03:17:40.516Z,15.60
2019-05-14T03:18:42.184Z,14.60
2019-05-14T03:19:44.247Z,15.00
2019-05-14T03:20:49.777Z,12.80
2019-05-14T03:21:50.550Z,16.60
2019-05-14T03:23:03.253Z,14.20
2019-05-14T03:23:56.479Z,16.60
2019-05-14T03:24:59.840Z,16.00
2019-05-14T03:26:02.129Z,14.80
2019-05-14T03:27:04.099Z,11.60
2019-05-14T03:28:09.043Z,12.80
2019-05-14T03:29:10.455Z,14.40
2019-05-14T03:30:14.095Z,12.60
2019-05-14T03:31:21.802Z,16.80
2019-05-14T03:32:22.327Z,15.20
2019-05-14T03:33:24.360Z,14.00
2019-05-14T03:34:32.333Z,12.00
2019-05-14T03:35:41.290Z,13.00
2019-05-14T03:36:35.524Z,13.00
2019-05-14T03:37:39.056Z,12.00
2019-05-14T03:38:41.509Z,13.40
2019-05-14T03:39:43.730Z,16.00
2019-05-14T03:40:46.421Z,12.40
2019-05-14T03:41:50.107Z,11.00
2019-05-14T03:42:52.408Z,12.80
2019-05-14T03:43:54.559Z,13.60
2019-05-14T03:44:59.351Z,12.60
2019-05-14T03:46:00.602Z,14.80
2019-05-14T03:47:05.240Z,16.60
2019-05-14T03:48:10.376Z,14.80
2019-05-14T03:49:11.947Z,12.00
2019-05-14T03:50:14.453Z,12.00
2019-05-14T03:51:16.712Z,14.00
2019-05-14T03:52:19.954Z,15.60
2019-05-14T03:53:22.195Z,17.00
2019-05-14T03:54:24.294Z,18.60
2019-05-14T03:55:29.235Z,15.40
2019-05-14T03:56:30.906Z,16.60
2019-05-14T03:57:33.075Z,11.00
2019-05-14T03:58:35.094Z,12.00
2019-05-14T03:59:40.301Z,11.20
2019-05-14T04:00:51.423Z,11.60
2019-05-14T04:01:53.664Z,11.20
2019-05-14T04:02:55.790Z,10.40
2019-05-14T04:03:59.310Z,10.60
2019-05-14T04:05:01.946Z,10.80
2019-05-14T04:06:05.047Z,8.20
2019-05-14T04:07:09.657Z,11.00
2019-05-14T04:08:13.193Z,9.00
2019-05-14T04:09:20.133Z,9.20
2019-05-14T04:10:20.924Z,10.00
2019-05-14T04:11:23.872Z,10.00
2019-05-14T04:12:29.303Z,9.20
2019-05-14T04:13:31.502Z,10.60
2019-05-14T04:14:35.535Z,10.40
2019-05-14T04:15:39.633Z,9.80
2019-05-14T04:17:00.026Z,9.00
2019-05-14T04:17:50.268Z,9.60
2019-05-14T04:18:53.021Z,10.00
2019-05-14T04:19:59.958Z,8.80
2019-05-14T04:21:02.650Z,9.00
2019-05-14T04:22:04.973Z,9.00
2019-05-14T04:23:09.454Z,6.00
2019-05-14T04:24:13.066Z,9.40
2019-05-14T04:25:15.382Z,8.80
2019-05-14T04:26:19.973Z,9.00
2019-05-14T04:27:23.618Z,9.60
2019-05-14T04:28:29.953Z,8.40
2019-05-14T04:29:33.958Z,6.00
2019-05-14T04:30:39.994Z,5.60
2019-05-14T04:31:49.428Z,6.60
2019-05-14T04:32:52.146Z,7.00
2019-05-14T04:33:58.929Z,8.20
2019-05-14T04:35:00.175Z,7.80
2019-05-14T04:36:02.493Z,9.60
2019-05-14T04:37:04.737Z,7.80
2019-05-14T04:38:09.543Z,8.60
2019-05-14T04:39:10.823Z,7.80
2019-05-14T04:40:13.727Z,5.60
2019-05-14T04:41:19.232Z,6.00
2019-05-14T04:42:20.543Z,7.60
2019-05-14T04:43:22.797Z,5.60
2019-05-14T04:44:24.963Z,6.00
2019-05-14T04:45:29.710Z,7.60
2019-05-14T04:46:31.057Z,6.00
2019-05-14T04:47:37.341Z,5.00
2019-05-14T04:48:41.702Z,5.40
2019-05-14T04:49:40.948Z,5.80
2019-05-14T04:50:44.310Z,5.20
2019-05-14T04:51:50.237Z,4.00
2019-05-14T04:52:52.280Z,5.20
2019-05-14T04:53:54.183Z,7.20
2019-05-14T04:54:59.189Z,5.60
2019-05-14T04:56:00.438Z,7.60
2019-05-14T04:57:02.623Z,5.60
2019-05-14T04:58:04.786Z,6.00
2019-05-14T04:59:10.062Z,5.00
2019-05-14T05:00:12.312Z,5.20
2019-05-14T05:01:14.862Z,4.80
2019-05-14T05:02:19.855Z,6.00
2019-05-14T05:03:20.906Z,7.40
2019-05-14T05:04:22.570Z,6.00
2019-05-14T05:05:24.499Z,5.20
2019-05-14T05:06:29.128Z,6.20
2019-05-14T05:07:30.343Z,5.00
2019-05-14T05:08:32.404Z,5.00
2019-05-14T05:09:34.394Z,5.40
2019-05-14T05:10:39.684Z,7.60
2019-05-14T05:11:40.276Z,5.00
2019-05-14T05:12:42.434Z,6.60
2019-05-14T05:13:44.533Z,5.00
2019-05-14T05:14:49.083Z,5.40
2019-05-14T05:15:50.619Z,7.20
2019-05-14T05:16:52.611Z,5.60
2019-05-14T05:17:54.626Z,6.00
2019-05-14T05:18:59.190Z,5.60
2019-05-14T05:20:00.659Z,5.80
2019-05-14T05:21:02.654Z,6.00
2019-05-14T05:22:07.912Z,6.00
2019-05-14T05:23:09.744Z,5.20
2019-05-14T05:24:11.723Z,5.00
2019-05-14T05:25:13.754Z,7.60
2019-05-14T05:26:18.256Z,7.80
2019-05-14T05:27:19.958Z,4.20
2019-05-14T05:28:21.875Z,6.00
2019-05-14T05:29:23.913Z,4.80
2019-05-14T05:30:26.168Z,5.20
2019-05-14T05:31:29.079Z,6.00
2019-05-14T05:32:31.139Z,5.40
2019-05-14T05:33:33.085Z,5.60
2019-05-14T05:34:34.753Z,5.00
2019-05-14T05:35:39.211Z,4.80
2019-05-14T05:36:41.422Z,5.60
2019-05-14T05:37:43.515Z,6.60
2019-05-14T05:38:45.624Z,7.40
2019-05-14T05:39:49.039Z,5.00
2019-05-14T05:40:51.317Z,7.20
2019-05-14T05:41:53.412Z,6.60
2019-05-14T05:42:58.103Z,7.80
2019-05-14T05:44:00.416Z,7.60
2019-05-14T05:45:05.094Z,5.40
2019-05-14T05:46:08.621Z,4.40
2019-05-14T05:47:10.877Z,7.80
2019-05-14T05:48:12.648Z,5.80
2019-05-14T05:49:14.621Z,6.00
2019-05-14T05:50:19.304Z,4.40
2019-05-14T05:51:21.430Z,4.60
2019-05-14T05:52:23.428Z,6.00
2019-05-14T05:53:25.582Z,4.60
2019-05-14T05:54:29.256Z,7.20
2019-05-14T05:55:31.502Z,6.75
2019-05-14T05:56:33.621Z,6.00
2019-05-14T05:57:35.916Z,6.00
2019-05-14T05:58:39.711Z,9.20
2019-05-14T05:59:42.819Z,6.80
2019-05-14T06:00:44.979Z,6.40
2019-05-14T06:01:50.081Z,6.00
2019-05-14T06:02:50.832Z,5.40
2019-05-14T06:03:52.517Z,6.40
2019-05-14T06:04:54.876Z,6.20
2019-05-14T06:05:59.414Z,7.60
2019-05-14T06:07:02.699Z,9.00
2019-05-14T06:08:05.107Z,5.80
2019-05-14T06:09:08.889Z,6.40
2019-05-14T06:10:10.827Z,5.00
2019-05-14T06:11:12.846Z,7.40
2019-05-14T06:12:14.804Z,5.80
2019-05-14T06:13:18.307Z,5.00
2019-05-14T06:14:20.485Z,7.80
2019-05-14T06:15:22.650Z,7.80
2019-05-14T06:16:24.782Z,5.40
2019-05-14T06:17:28.528Z,7.40
2019-05-14T06:18:34.321Z,6.00
2019-05-14T06:19:35.401Z,6.25
2019-05-14T06:20:38.746Z,7.25
2019-05-14T06:21:40.946Z,6.00
2019-05-14T06:22:43.069Z,7.60
2019-05-14T06:26:19.614Z,8.00
2019-05-14T06:27:21.953Z,6.00
2019-05-14T06:28:30.177Z,8.20
2019-05-14T06:29:29.735Z,8.60
2019-05-14T06:30:34.275Z,8.40
2019-05-14T06:31:38.688Z,7.80
2019-05-14T06:32:41.919Z,8.20
2019-05-14T06:33:44.075Z,7.40
2019-05-14T06:34:48.632Z,8.20
2019-05-14T06:35:50.064Z,7.80
2019-05-14T06:36:52.127Z,7.80
2019-05-14T06:37:53.914Z,9.20
2019-05-14T06:38:58.433Z,7.80
2019-05-14T06:40:00.046Z,7.80
2019-05-14T06:41:02.260Z,9.00
2019-05-14T06:42:04.467Z,6.80
2019-05-14T06:43:06.277Z,9.60
2019-05-14T06:44:09.232Z,7.80
2019-05-14T06:45:11.667Z,8.40
2019-05-14T06:46:13.591Z,8.60
2019-05-14T06:47:15.660Z,6.00
2019-05-14T06:48:28.127Z,5.60
2019-05-14T06:49:21.673Z,5.80
2019-05-14T06:50:23.812Z,5.00
2019-05-14T06:51:28.366Z,6.00
2019-05-14T06:52:29.926Z,5.20
2019-05-14T06:53:32.176Z,5.80
2019-05-14T06:54:34.247Z,4.80
2019-05-14T06:55:36.216Z,8.00
2019-05-14T06:56:38.576Z,5.60
2019-05-14T06:57:40.928Z,6.80
2019-05-14T06:58:42.610Z,6.00
2019-05-14T06:59:48.219Z,5.40
2019-05-14T07:00:49.752Z,6.40
2019-05-14T07:01:53.150Z,4.60
2019-05-14T07:02:55.118Z,5.00
2019-05-14T07:03:58.107Z,5.00
2019-05-14T07:05:03.167Z,5.60
2019-05-14T07:06:05.778Z,5.40
2019-05-14T07:07:08.530Z,7.80
2019-05-14T07:08:10.676Z,6.00
2019-05-14T07:09:12.865Z,4.00
2019-05-14T07:10:15.085Z,5.40
2019-05-14T07:11:19.085Z,5.00
2019-05-14T07:12:21.050Z,7.60
2019-05-14T07:13:23.161Z,6.40
2019-05-14T07:14:25.134Z,5.40
2019-05-14T07:15:29.025Z,7.00
2019-05-14T07:16:31.278Z,8.20
2019-05-14T07:17:33.569Z,6.00
2019-05-14T07:18:46.316Z,5.60
2019-05-14T07:19:39.631Z,6.00
2019-05-14T07:20:41.911Z,5.40
2019-05-14T07:21:44.125Z,8.40
2019-05-14T07:22:48.337Z,4.80
2019-05-14T07:23:50.599Z,5.80
2019-05-14T07:24:52.597Z,5.60
2019-05-14T07:25:54.680Z,8.00
2019-05-14T07:26:58.723Z,5.80
2019-05-14T07:28:00.532Z,5.00
2019-05-14T07:29:02.664Z,6.00
2019-05-14T07:30:05.749Z,5.80
2019-05-14T07:31:09.755Z,7.60
2019-05-14T07:32:11.235Z,7.20
2019-05-14T07:33:13.217Z,5.80
2019-05-14T07:34:15.268Z,6.00
2019-05-14T07:35:18.428Z,5.00
2019-05-14T07:36:20.743Z,4.50
2019-05-14T07:37:22.900Z,6.00
2019-05-14T07:38:24.985Z,5.00
2019-05-14T07:39:29.097Z,6.20
2019-05-14T07:40:31.236Z,5.00
2019-05-14T07:41:32.984Z,7.00
2019-05-14T07:42:35.004Z,5.00
2019-05-14T07:43:39.131Z,9.40
2019-05-14T07:44:40.659Z,10.40
2019-05-14T07:45:42.880Z,6.80
2019-05-14T07:46:45.292Z,6.00
2019-05-14T07:47:49.335Z,5.60
2019-05-14T07:49:04.268Z,6.00
2019-05-14T07:49:55.304Z,5.60
2019-05-14T07:51:00.073Z,5.00
2019-05-14T07:52:01.151Z,6.00
2019-05-14T07:53:03.466Z,7.20
2019-05-14T07:54:05.568Z,6.00
2019-05-14T07:55:09.248Z,5.80
2019-05-14T07:56:11.570Z,5.00
2019-05-14T07:57:13.934Z,5.00
2019-05-14T07:58:15.973Z,5.20
2019-05-14T07:59:18.231Z,4.80
2019-05-14T08:00:21.040Z,7.00
2019-05-14T08:01:23.158Z,6.00
2019-05-14T08:02:25.280Z,5.00
2019-05-14T08:03:28.619Z,6.80
2019-05-14T08:04:30.690Z,6.20
2019-05-14T08:05:32.830Z,4.80
2019-05-14T08:06:35.014Z,4.60
2019-05-14T08:07:38.882Z,6.00
2019-05-14T08:08:40.696Z,5.00
2019-05-14T08:09:42.650Z,6.00
2019-05-14T08:10:44.615Z,7.00
2019-05-14T08:11:48.030Z,6.20
2019-05-14T08:12:50.381Z,6.00
2019-05-14T08:13:52.014Z,6.60
2019-05-14T08:15:11.056Z,5.00
2019-05-14T08:15:58.686Z,5.20
2019-05-14T08:17:00.818Z,6.00
2019-05-14T08:18:03.175Z,6.00
2019-05-14T08:19:22.532Z,6.00
2019-05-14T08:20:09.770Z,6.40
2019-05-14T08:21:11.826Z,7.40
2019-05-14T08:22:13.600Z,6.00
2019-05-14T08:23:18.237Z,6.00
2019-05-14T08:24:26.326Z,5.80
2019-05-14T08:25:23.619Z,5.20
2019-05-14T08:26:25.803Z,6.00
2019-05-14T08:27:31.269Z,6.20
2019-05-14T08:28:33.363Z,4.60
2019-05-14T08:29:37.508Z,6.00
2019-05-14T08:30:39.346Z,6.60
2019-05-14T08:31:41.299Z,5.40
2019-05-14T08:32:42.994Z,4.80
2019-05-14T08:33:44.960Z,5.00
2019-05-14T08:34:48.366Z,6.00
2019-05-14T08:35:50.432Z,5.60
2019-05-14T08:36:52.566Z,5.00
2019-05-14T08:38:05.575Z,6.40
2019-05-14T08:38:58.290Z,5.60
2019-05-14T08:40:00.843Z,4.40
2019-05-14T08:41:02.937Z,5.20
2019-05-14T08:42:05.081Z,4.80
2019-05-14T08:43:08.612Z,5.80
2019-05-14T08:44:11.129Z,7.00
2019-05-14T08:45:14.003Z,8.20
2019-05-14T08:46:18.845Z,6.00
2019-05-14T08:47:20.116Z,4.60
2019-05-14T08:48:22.054Z,7.00
2019-05-14T08:49:37.808Z,7.60
2019-05-14T08:50:28.229Z,5.00
2019-05-14T08:51:30.314Z,6.20
2019-05-14T08:52:33.470Z,4.40
2019-05-14T08:53:38.456Z,6.00
2019-05-14T08:54:41.940Z,6.00
2019-05-14T08:55:43.670Z,5.80
2019-05-14T08:56:45.870Z,9.00
2019-05-14T08:57:48.904Z,6.60
2019-05-14T08:58:51.391Z,5.60
2019-05-14T08:59:53.489Z,5.40
2019-05-14T09:00:55.559Z,5.00
2019-05-14T09:02:06.207Z,6.60
2019-05-14T09:03:03.345Z,4.40
2019-05-14T09:05:05.489Z,5.40
2019-05-14T09:06:09.411Z,6.00
2019-05-14T09:07:11.345Z,6.00
2019-05-14T09:08:13.519Z,4.00
2019-05-14T09:09:18.119Z,7.00
2019-05-14T09:10:21.553Z,5.80
2019-05-14T09:11:26.506Z,5.40
2019-05-14T09:12:29.623Z,5.00
2019-05-14T09:13:31.261Z,6.00
2019-05-14T09:14:33.355Z,4.00
2019-05-14T09:15:35.035Z,5.00
2019-05-14T09:16:45.527Z,7.20
2019-05-14T09:17:41.097Z,4.60
2019-05-14T09:18:43.247Z,7.40
2019-05-14T09:19:58.832Z,7.20
2019-05-14T09:20:49.721Z,5.40
2019-05-14T09:21:51.792Z,7.80
2019-05-14T09:22:54.540Z,5.20
2019-05-14T09:23:58.706Z,6.20
2019-05-14T09:25:08.298Z,6.50
2019-05-14T09:26:10.247Z,7.80
2019-05-14T09:27:13.353Z,10.00
2019-05-14T09:28:15.417Z,10.40
2019-05-14T09:29:25.331Z,7.80
2019-05-14T09:30:22.648Z,7.00
2019-05-14T09:31:29.580Z,7.20
2019-05-14T09:32:32.985Z,5.40
2019-05-14T09:34:13.191Z,6.00
2019-05-14T09:35:18.786Z,6.20
2019-05-14T09:36:24.154Z,5.60
2019-05-14T09:37:28.893Z,4.40
2019-05-14T09:38:31.593Z,4.80
2019-05-14T09:39:34.289Z,5.40
2019-05-14T09:40:39.486Z,3.60
2019-05-14T09:41:41.681Z,7.60
2019-05-14T09:42:44.468Z,4.20
2019-05-14T09:43:48.738Z,3.40
2019-05-14T09:44:52.371Z,5.00
2019-05-14T09:45:54.942Z,5.40
2019-05-14T09:47:01.235Z,4.00
2019-05-14T09:48:05.403Z,6.80
2019-05-14T09:49:08.244Z,4.80
2019-05-14T09:50:22.048Z,5.20
2019-05-14T09:51:18.461Z,5.40
2019-05-14T09:52:23.106Z,4.60
2019-05-14T09:53:25.704Z,5.80
2019-05-14T09:54:28.838Z,5.00
2019-05-14T09:55:30.736Z,4.20
2019-05-14T09:56:33.028Z,6.00
2019-05-14T09:57:35.894Z,4.00
2019-05-14T09:58:38.717Z,6.00
2019-05-14T09:59:41.835Z,5.00
2019-05-14T10:00:44.414Z,5.00
2019-05-14T10:01:50.770Z,6.00
2019-05-14T10:02:52.423Z,5.40
2019-05-14T10:03:54.803Z,6.60
2019-05-14T10:04:59.805Z,6.40
2019-05-14T10:06:01.824Z,6.00
2019-05-14T10:07:05.460Z,5.00
2019-05-14T10:08:08.944Z,4.00
2019-05-14T10:09:13.685Z,5.80
2019-05-14T10:10:19.382Z,3.20
2019-05-14T10:11:20.792Z,5.40
2019-05-14T10:12:23.288Z,6.00
2019-05-14T10:13:28.245Z,5.80
2019-05-14T10:14:33.029Z,8.40
2019-05-14T10:15:35.704Z,46.20
2019-05-14T10:16:38.655Z,7.00
2019-05-14T10:17:41.930Z,12.20
2019-05-14T10:18:44.566Z,8.20
2019-05-14T10:19:49.855Z,10.60
2019-05-14T10:20:52.574Z,10.20
2019-05-14T10:21:54.847Z,10.20
2019-05-14T10:22:59.266Z,9.40
2019-05-14T10:24:03.569Z,8.40
2019-05-14T10:25:09.051Z,10.00
2019-05-14T10:26:12.823Z,5.00
2019-05-14T10:27:14.697Z,5.20
2019-05-14T10:28:19.046Z,9.80
2019-05-14T10:29:22.620Z,11.20
2019-05-14T10:30:25.511Z,10.40
2019-05-14T10:31:28.895Z,11.00
2019-05-14T10:32:31.683Z,10.00
2019-05-14T10:33:35.651Z,8.60
2019-05-14T10:34:38.296Z,9.00
2019-05-14T10:35:40.961Z,6.80
2019-05-14T10:36:43.051Z,9.00
2019-05-14T10:37:45.654Z,8.80
2019-05-14T10:38:48.109Z,6.00
2019-05-14T10:39:50.243Z,6.20
2019-05-14T10:40:53.330Z,4.80
2019-05-14T10:41:56.962Z,7.20
2019-05-14T10:42:59.287Z,5.00
2019-05-14T10:44:01.693Z,5.60
2019-05-14T10:45:11.996Z,6.00
2019-05-14T10:46:11.704Z,7.40
2019-05-14T10:47:14.096Z,5.60
2019-05-14T10:48:18.582Z,9.00
2019-05-14T10:49:23.713Z,6.80
2019-05-14T10:50:28.824Z,5.00
2019-05-14T10:51:31.234Z,7.40
2019-05-14T10:52:33.470Z,5.00
2019-05-14T10:53:36.149Z,5.80
2019-05-14T10:54:53.662Z,6.00
2019-05-14T10:55:42.944Z,5.00
2019-05-14T10:56:45.472Z,5.20
2019-05-14T10:57:54.092Z,5.00
2019-05-14T10:58:54.269Z,7.40
2019-05-14T10:59:59.048Z,9.20
2019-05-14T11:01:00.669Z,12.80
2019-05-14T11:02:03.228Z,9.20
2019-05-14T11:03:07.473Z,7.00
2019-05-14T11:04:11.215Z,7.80
2019-05-14T11:05:15.395Z,7.00
2019-05-14T11:06:18.985Z,5.40
2019-05-14T11:07:21.903Z,5.00
2019-05-14T11:08:29.615Z,5.00
2019-05-14T11:09:32.045Z,5.40
2019-05-14T11:10:34.570Z,6.40
2019-05-14T11:11:38.271Z,10.00
2019-05-14T11:12:40.931Z,4.20
2019-05-14T11:13:43.700Z,5.20
2019-05-14T11:14:46.200Z,9.00
2019-05-14T11:15:48.806Z,8.80
2019-05-14T11:16:52.601Z,5.60
2019-05-14T11:17:56.367Z,5.80
2019-05-14T11:19:00.515Z,6.40
2019-05-14T11:20:05.030Z,6.80
2019-05-14T11:21:21.559Z,5.60
2019-05-14T11:22:13.014Z,6.20
2019-05-14T11:23:15.342Z,13.40
2019-05-14T11:24:19.494Z,6.00
2019-05-14T11:25:23.477Z,6.00
2019-05-14T11:26:29.421Z,6.00
2019-05-14T11:27:32.336Z,12.40
2019-05-14T11:28:35.025Z,6.20
2019-05-14T11:29:38.780Z,12.20
2019-05-14T11:30:41.496Z,6.80
2019-05-14T11:31:44.400Z,10.20
2019-05-14T11:32:49.298Z,9.60
2019-05-14T11:33:51.353Z,60.20
2019-05-14T11:34:55.318Z,29.60
2019-05-14T11:35:58.845Z,38.20
2019-05-14T11:37:01.669Z,29.80
2019-05-14T11:38:24.075Z,17.00
2019-05-14T11:39:13.245Z,16.00
2019-05-14T11:40:19.587Z,16.00
2019-05-14T11:41:24.034Z,10.60
2019-05-14T11:42:31.137Z,11.00
2019-05-14T11:43:31.056Z,12.60
2019-05-14T11:44:33.730Z,11.00
2019-05-14T11:45:38.986Z,15.60
2019-05-14T11:46:50.720Z,11.00
2019-05-14T11:47:45.201Z,13.00
2019-05-14T11:48:49.232Z,12.40
2019-05-14T11:49:54.538Z,32.40
2019-05-14T11:50:59.451Z,52.00
2019-05-14T11:52:07.644Z,39.60
2019-05-14T11:53:08.519Z,43.40
2019-05-14T11:54:11.186Z,43.80
2019-05-14T11:55:15.585Z,49.40
2019-05-14T11:56:19.377Z,48.80
2019-05-14T11:57:22.375Z,38.00
2019-05-14T11:58:29.495Z,38.80
2019-05-14T11:59:31.607Z,33.40
2019-05-14T12:00:38.230Z,41.80
2019-05-14T12:01:40.223Z,30.80
2019-05-14T12:02:43.828Z,38.80
2019-05-14T12:03:45.782Z,28.60
2019-05-14T12:04:47.977Z,24.40
2019-05-14T12:05:50.983Z,24.00
2019-05-14T12:06:53.763Z,20.00
2019-05-14T12:07:56.480Z,25.40
2019-05-14T12:09:00.280Z,20.20
2019-05-14T12:10:05.837Z,20.40
2019-05-14T12:11:08.880Z,19.40
2019-05-14T12:12:12.708Z,23.20
2019-05-14T12:13:19.135Z,23.00
2019-05-14T12:14:21.149Z,21.40
2019-05-14T12:15:24.020Z,19.20
2019-05-14T12:16:29.102Z,20.20
2019-05-14T12:17:30.654Z,18.20
2019-05-14T12:18:33.574Z,14.40
2019-05-14T12:19:38.856Z,15.80
2019-05-14T12:20:40.851Z,33.00
2019-05-14T12:21:58.935Z,25.80
2019-05-14T12:22:48.844Z,33.00
2019-05-14T12:23:51.515Z,10.00
2019-05-14T12:24:53.808Z,25.40
2019-05-14T12:25:58.778Z,23.40
2019-05-14T12:27:01.641Z,29.00
2019-05-14T12:28:04.386Z,31.20
2019-05-14T12:29:09.597Z,36.00
2019-05-14T12:30:12.256Z,35.20
2019-05-14T12:31:14.769Z,30.60
2019-05-14T12:32:18.912Z,33.00
2019-05-14T12:33:21.758Z,23.00
2019-05-14T12:34:24.652Z,27.00
2019-05-14T12:35:29.245Z,31.60
2019-05-14T12:36:32.944Z,19.80
2019-05-14T12:37:38.861Z,36.40
2019-05-14T12:38:43.459Z,36.40
2019-05-14T12:39:47.641Z,46.80
2019-05-14T12:40:50.918Z,33.80
2019-05-14T12:41:54.000Z,20.00
2019-05-14T12:42:59.086Z,31.40
2019-05-14T12:44:01.617Z,27.60
2019-05-14T12:45:09.248Z,27.00
2019-05-14T12:46:12.561Z,23.00
2019-05-14T12:47:15.144Z,19.80
2019-05-14T12:48:18.848Z,23.40
2019-05-14T12:49:21.375Z,20.60
2019-05-14T12:50:24.426Z,19.00
2019-05-14T12:51:27.284Z,29.40
2019-05-14T12:52:29.810Z,24.20
2019-05-14T12:53:32.585Z,27.00
2019-05-14T12:54:35.240Z,20.60
2019-05-14T12:55:40.147Z,20.40
2019-05-14T12:56:42.436Z,20.80
2019-05-14T12:57:48.672Z,17.80
2019-05-14T12:58:52.743Z,20.00
2019-05-14T12:59:55.440Z,17.80
2019-05-14T13:00:59.408Z,16.60
2019-05-14T13:02:02.903Z,15.80
2019-05-14T13:03:05.429Z,18.20
2019-05-14T13:04:08.571Z,19.20
2019-05-14T13:05:11.498Z,17.20
2019-05-14T13:06:14.184Z,17.40
2019-05-14T13:07:19.068Z,15.60
2019-05-14T13:08:21.623Z,13.00
2019-05-14T13:09:24.534Z,15.80
2019-05-14T13:10:29.690Z,15.20
2019-05-14T13:11:32.742Z,11.60
2019-05-14T13:12:39.212Z,14.80
2019-05-14T13:13:44.099Z,14.20
2019-05-14T13:14:48.895Z,11.00
2019-05-14T13:15:51.324Z,13.00
2019-05-14T13:16:54.655Z,12.40
2019-05-14T13:17:57.686Z,10.00
2019-05-14T13:19:00.082Z,11.60
2019-05-14T13:20:05.275Z,10.80
2019-05-14T13:21:08.230Z,10.20
2019-05-14T13:22:15.165Z,11.00
2019-05-14T13:23:15.277Z,10.00
2019-05-14T13:24:18.200Z,12.00
2019-05-14T13:25:20.445Z,10.00
2019-05-14T13:26:23.235Z,11.00
2019-05-14T13:27:25.424Z,12.40
2019-05-14T13:28:29.070Z,11.80
2019-05-14T13:29:32.046Z,9.00
2019-05-14T13:30:34.228Z,10.00
2019-05-14T13:31:39.051Z,11.00
2019-05-14T13:32:41.924Z,11.00
2019-05-14T13:33:44.904Z,11.00
2019-05-14T13:34:49.384Z,15.60
2019-05-14T13:35:53.583Z,12.00
2019-05-14T13:36:55.890Z,11.80
2019-05-14T13:37:59.815Z,15.00
2019-05-14T13:39:08.930Z,13.00
2019-05-14T13:40:13.609Z,11.00
2019-05-14T13:41:15.037Z,11.80
2019-05-14T13:42:18.675Z,9.40
2019-05-14T13:43:21.213Z,13.00
2019-05-14T13:44:24.982Z,12.20
2019-05-14T13:45:30.066Z,13.40
2019-05-14T13:46:32.985Z,7.00
2019-05-14T13:47:35.708Z,9.40
2019-05-14T13:48:42.842Z,14.60
2019-05-14T13:49:43.095Z,13.40
2019-05-14T13:50:48.961Z,12.40